createdAt,value
2022-11-05T00:02:27.637Z,14.00
2022-11-05T00:05:13.839Z,13.75
2022-11-05T00:08:04.375Z,13.70
2022-11-05T00:10:32.668Z,13.20
2022-11-05T00:13:19.306Z,14.10
2022-11-05T00:16:05.303Z,12.70
2022-11-05T00:18:33.529Z,13.53
2022-11-05T00:21:01.676Z,13.10
2022-11-05T00:23:47.800Z,13.55
2022-11-05T00:26:16.102Z,12.63
2022-11-05T00:28:44.543Z,13.10
2022-11-05T00:31:13.730Z,12.90
2022-11-05T00:33:43.239Z,12.07
2022-11-05T00:36:12.141Z,11.90
2022-11-05T00:38:40.333Z,11.83
2022-11-05T00:41:08.565Z,11.57
2022-11-05T00:43:54.684Z,12.37
2022-11-05T00:46:23.166Z,12.50
2022-11-05T00:49:09.278Z,12.18
2022-11-05T00:51:37.477Z,12.55
2022-11-05T00:54:05.671Z,11.63
2022-11-05T00:56:33.807Z,11.73
2022-11-05T00:59:02.035Z,12.43
2022-11-05T01:01:30.489Z,12.43
2022-11-05T01:03:58.739Z,12.28
2022-11-05T01:06:26.964Z,12.15
2022-11-05T01:08:56.439Z,11.68
2022-11-05T01:11:33.900Z,11.10
2022-11-05T01:14:04.002Z,11.40
2022-11-05T01:16:32.493Z,11.40
2022-11-05T01:19:01.375Z,11.75
2022-11-05T01:21:29.650Z,11.90
2022-11-05T01:23:57.883Z,11.85
2022-11-05T01:26:26.745Z,11.35
2022-11-05T01:28:55.955Z,11.80
2022-11-05T01:31:24.623Z,11.75
2022-11-05T01:33:52.899Z,12.10
2022-11-05T01:36:21.108Z,12.50
2022-11-05T01:38:49.317Z,11.80
2022-11-05T01:41:17.535Z,12.15
2022-11-05T01:43:54.314Z,11.90
2022-11-05T01:46:24.126Z,12.13
2022-11-05T01:48:58.637Z,12.00
2022-11-05T01:51:25.406Z,11.57
2022-11-05T01:53:55.173Z,11.57
2022-11-05T01:56:27.862Z,11.85
2022-11-05T01:59:00.628Z,11.30
2022-11-05T02:01:28.960Z,11.75
2022-11-05T02:03:58.735Z,12.70
2022-11-05T02:06:32.863Z,12.73
2022-11-05T02:09:05.290Z,12.43
2022-11-05T02:11:36.834Z,13.35
2022-11-05T02:14:05.482Z,13.10
2022-11-05T02:16:50.486Z,12.95
2022-11-05T02:19:36.671Z,13.38
2022-11-05T02:22:24.777Z,12.40
2022-11-05T02:25:11.125Z,12.20
2022-11-05T02:27:43.407Z,11.85
2022-11-05T02:30:28.388Z,11.78
2022-11-05T02:33:15.552Z,12.37
2022-11-05T02:35:48.211Z,12.47
2022-11-05T02:38:22.536Z,11.80
2022-11-05T02:41:08.967Z,12.45
2022-11-05T02:43:50.608Z,12.40
2022-11-05T02:46:20.357Z,12.10
2022-11-05T02:48:54.894Z,12.10
2022-11-05T02:51:33.610Z,11.70
2022-11-05T02:54:18.647Z,12.98
2022-11-05T02:56:48.006Z,12.03
2022-11-05T02:59:16.209Z,12.05
2022-11-05T03:01:46.273Z,11.68
2022-11-05T03:04:16.282Z,12.60
2022-11-05T03:07:08.296Z,12.18
2022-11-05T03:09:54.645Z,12.47
2022-11-05T03:12:30.273Z,11.38
2022-11-05T03:15:05.851Z,11.18
2022-11-05T03:17:50.822Z,10.88
2022-11-05T03:20:20.575Z,10.80
2022-11-05T03:22:50.325Z,9.85
2022-11-05T03:25:20.376Z,10.50
2022-11-05T03:27:49.103Z,10.15
2022-11-05T03:30:18.784Z,10.03
2022-11-05T03:32:55.953Z,10.32
2022-11-05T03:35:25.682Z,10.05
2022-11-05T03:37:58.423Z,10.03
2022-11-05T03:40:26.896Z,10.72
2022-11-05T03:43:01.272Z,10.85
2022-11-05T03:45:28.063Z,11.00
2022-11-05T03:47:57.789Z,10.55
2022-11-05T03:50:41.053Z,10.58
2022-11-05T03:53:17.410Z,10.82
2022-11-05T03:55:47.238Z,10.15
2022-11-05T03:58:16.209Z,10.00
2022-11-05T04:00:44.507Z,9.80
2022-11-05T04:03:13.129Z,10.38
2022-11-05T04:05:41.552Z,10.30
2022-11-05T04:08:28.806Z,10.25
2022-11-05T04:11:14.811Z,10.43
2022-11-05T04:13:43.035Z,10.08
2022-11-05T04:16:29.071Z,9.47
2022-11-05T04:18:57.287Z,9.48
2022-11-05T04:21:43.397Z,9.58
2022-11-05T04:24:12.606Z,10.08
2022-11-05T04:26:43.456Z,9.60
2022-11-05T04:29:30.370Z,9.88
2022-11-05T04:31:58.583Z,10.00
2022-11-05T04:34:26.785Z,9.83
2022-11-05T04:36:55.070Z,10.25
2022-11-05T04:39:23.303Z,10.57
2022-11-05T04:41:51.517Z,10.63
2022-11-05T04:44:19.733Z,10.90
2022-11-05T04:46:47.931Z,10.75
2022-11-05T04:49:16.146Z,10.70
2022-11-05T04:51:45.925Z,11.08
2022-11-05T04:54:14.120Z,11.47
2022-11-05T04:56:42.330Z,10.32
2022-11-05T04:59:10.535Z,10.45
2022-11-05T05:01:38.860Z,11.20
2022-11-05T05:04:07.167Z,10.80
2022-11-05T05:06:35.412Z,10.72
2022-11-05T05:09:03.693Z,10.80
2022-11-05T05:11:31.921Z,10.72
2022-11-05T05:14:00.133Z,10.90
2022-11-05T05:16:28.408Z,10.50
2022-11-05T05:18:59.526Z,10.85
2022-11-05T05:21:39.662Z,10.23
2022-11-05T05:24:15.082Z,11.87
2022-11-05T05:26:44.770Z,11.03
2022-11-05T05:29:17.614Z,10.82
2022-11-05T05:31:45.883Z,11.13
2022-11-05T05:34:20.415Z,12.03
2022-11-05T05:36:44.338Z,12.10
2022-11-05T05:39:13.625Z,12.10
2022-11-05T05:41:41.822Z,11.75
2022-11-05T05:44:10.022Z,11.43
2022-11-05T05:46:38.253Z,11.33
2022-11-05T05:49:11.245Z,11.90
2022-11-05T05:51:36.307Z,11.43
2022-11-05T05:54:04.590Z,11.23
2022-11-05T05:56:35.875Z,11.73
2022-11-05T05:59:05.529Z,11.70
2022-11-05T06:01:33.720Z,11.93
2022-11-05T06:04:02.218Z,12.35
2022-11-05T06:06:30.431Z,12.28
2022-11-05T06:08:58.643Z,12.80
2022-11-05T06:11:26.865Z,12.85
2022-11-05T06:13:55.125Z,13.43
2022-11-05T06:16:23.259Z,12.70
2022-11-05T06:18:52.067Z,12.67
2022-11-05T06:21:20.282Z,12.98
2022-11-05T06:23:49.642Z,13.22
2022-11-05T06:26:20.029Z,13.22
2022-11-05T06:28:48.325Z,13.35
2022-11-05T06:31:16.517Z,13.03
2022-11-05T06:33:44.733Z,14.00
2022-11-05T06:36:14.477Z,14.20
2022-11-05T06:38:42.720Z,13.53
2022-11-05T06:41:11.103Z,16.60
2022-11-05T06:43:39.377Z,17.82
2022-11-05T06:46:07.578Z,16.85
2022-11-05T06:48:35.901Z,16.23
2022-11-05T06:51:04.107Z,14.63
2022-11-05T06:53:32.496Z,14.30
2022-11-05T06:56:05.012Z,13.80
2022-11-05T06:58:33.609Z,12.75
2022-11-05T07:01:02.906Z,13.58
2022-11-05T07:03:31.338Z,12.85
2022-11-05T07:06:00.563Z,13.60
2022-11-05T07:08:32.444Z,13.30
2022-11-05T07:11:01.049Z,13.98
2022-11-05T07:13:29.266Z,13.85
2022-11-05T07:15:57.462Z,13.32
2022-11-05T07:18:25.879Z,16.30
2022-11-05T07:20:58.447Z,15.05
2022-11-05T07:23:26.727Z,13.78
2022-11-05T07:25:54.930Z,12.30
2022-11-05T07:28:23.169Z,12.95
2022-11-05T07:30:51.393Z,12.07
2022-11-05T07:33:19.598Z,12.10
2022-11-05T07:35:47.859Z,11.93
2022-11-05T07:38:35.432Z,11.75
2022-11-05T07:41:03.675Z,11.68
2022-11-05T07:43:31.886Z,11.48
2022-11-05T07:46:19.439Z,12.50
2022-11-05T07:48:47.644Z,12.10
2022-11-05T07:51:15.852Z,11.70
2022-11-05T07:53:45.422Z,12.43
2022-11-05T07:56:13.983Z,12.18
2022-11-05T07:58:42.186Z,12.50
2022-11-05T08:01:10.507Z,12.20
2022-11-05T08:03:38.794Z,12.55
2022-11-05T08:06:07.046Z,13.40
2022-11-05T08:08:35.347Z,13.15
2022-11-05T08:11:05.161Z,12.40
2022-11-05T08:13:33.533Z,11.93
2022-11-05T08:16:02.072Z,12.30
2022-11-05T08:18:33.837Z,11.18
2022-11-05T08:23:30.834Z,10.45
2022-11-05T08:25:59.502Z,11.78
2022-11-05T08:28:27.701Z,9.78
2022-11-05T08:30:56.697Z,10.95
2022-11-05T08:33:25.268Z,10.77
2022-11-05T08:35:53.558Z,10.73
2022-11-05T08:38:21.798Z,10.95
2022-11-05T08:40:57.651Z,11.48
2022-11-05T08:43:46.620Z,11.08
2022-11-05T08:46:14.910Z,11.03
2022-11-05T08:48:43.101Z,9.53
2022-11-05T08:51:11.355Z,9.95
2022-11-05T08:53:42.522Z,10.03
2022-11-05T08:56:10.717Z,9.90
2022-11-05T08:58:41.475Z,9.65
2022-11-05T09:01:09.937Z,8.38
2022-11-05T09:03:38.712Z,9.30
2022-11-05T09:06:07.094Z,9.75
2022-11-05T09:08:35.295Z,7.10
2022-11-05T09:11:03.503Z,7.17
2022-11-05T09:13:31.718Z,7.12
2022-11-05T09:15:59.998Z,7.95
2022-11-05T09:18:28.760Z,7.83
2022-11-05T09:20:56.972Z,7.42
2022-11-05T09:23:25.185Z,6.50
2022-11-05T09:25:53.388Z,7.42
2022-11-05T09:28:23.630Z,7.00
2022-11-05T11:56:09.130Z,3.55
2022-11-05T11:58:41.064Z,3.33
2022-11-05T12:01:16.590Z,3.53
2022-11-05T12:03:52.438Z,3.80
2022-11-05T12:06:28.292Z,4.03
2022-11-05T12:09:06.403Z,3.80
2022-11-05T12:11:48.707Z,3.62
2022-11-05T12:14:24.174Z,3.57
2022-11-05T12:16:53.933Z,3.47
2022-11-05T12:19:23.778Z,3.40
2022-11-05T12:22:02.456Z,3.40
2022-11-05T12:24:34.864Z,3.37
2022-11-05T12:27:13.793Z,3.33
2022-11-05T12:29:52.669Z,3.42
2022-11-05T12:32:28.663Z,3.37
2022-11-05T12:34:58.492Z,3.30
2022-11-05T12:37:28.531Z,3.37
2022-11-05T12:40:01.313Z,3.20
2022-11-05T12:42:40.288Z,3.55
2022-11-05T12:45:13.113Z,3.27
2022-11-05T12:47:52.025Z,3.40
2022-11-05T12:50:24.656Z,3.52
2022-11-05T12:53:11.365Z,3.85
2022-11-05T12:55:47.126Z,3.37
2022-11-05T12:58:12.591Z,3.80
2022-11-05T13:00:42.411Z,3.47
2022-11-05T13:03:21.129Z,3.65
2022-11-05T13:05:50.893Z,3.80
2022-11-05T13:08:20.641Z,3.92
2022-11-05T13:10:56.342Z,4.28
2022-11-05T13:13:28.801Z,4.20
2022-11-05T13:15:58.559Z,3.90
2022-11-05T13:18:28.894Z,3.80
2022-11-05T13:20:57.162Z,3.63
2022-11-05T13:23:32.842Z,3.20
2022-11-05T13:26:02.624Z,2.95
2022-11-05T13:28:35.104Z,2.98
2022-11-05T13:31:05.345Z,2.90
2022-11-05T13:33:38.049Z,2.70
2022-11-05T13:36:25.853Z,3.00
2022-11-05T13:39:02.405Z,3.00
2022-11-05T13:41:35.110Z,2.62
2022-11-05T13:44:05.080Z,2.85
2022-11-05T13:46:51.631Z,2.50
2022-11-05T13:49:24.267Z,3.02
2022-11-05T13:51:54.183Z,2.50
2022-11-05T13:54:27.106Z,2.40
2022-11-05T13:57:12.063Z,2.33
2022-11-05T13:59:44.861Z,2.15
2022-11-05T14:02:23.787Z,2.10
2022-11-05T14:04:59.588Z,1.90
2022-11-05T14:07:35.014Z,2.02
2022-11-05T14:10:07.792Z,2.10
2022-11-05T14:12:37.568Z,2.20
2022-11-05T14:15:09.203Z,2.30
2022-11-05T14:17:55.738Z,4.50
2022-11-05T14:20:25.480Z,2.75
2022-11-05T14:22:53.876Z,2.70
2022-11-05T14:25:25.335Z,2.67
2022-11-05T14:27:53.529Z,5.42
2022-11-05T14:30:41.235Z,3.40
2022-11-05T14:33:14.779Z,2.60
2022-11-05T14:35:43.244Z,2.30
2022-11-05T14:38:28.040Z,1.60
2022-11-05T14:40:59.872Z,2.00
2022-11-05T14:43:29.354Z,1.90
2022-11-05T14:46:02.164Z,1.87
2022-11-05T14:50:57.965Z,1.80
2022-11-05T14:53:30.680Z,2.08
2022-11-05T14:58:33.854Z,1.70
2022-11-05T15:01:04.391Z,2.00
2022-11-05T15:03:56.390Z,2.87
2022-11-05T15:06:26.296Z,2.70
2022-11-05T15:09:19.126Z,2.90
2022-11-05T15:11:56.788Z,2.27
2022-11-05T15:14:29.656Z,3.98
2022-11-05T15:17:09.980Z,2.85
2022-11-05T15:19:39.329Z,3.40
2022-11-05T15:22:20.116Z,2.27
2022-11-05T15:30:33.590Z,2.20
2022-11-05T15:33:29.593Z,2.27
2022-11-05T15:35:59.430Z,2.17
2022-11-05T15:38:33.648Z,2.33
2022-11-05T15:41:06.286Z,2.60
2022-11-05T15:43:34.930Z,3.15
2022-11-05T15:46:04.881Z,4.95
2022-11-05T15:48:33.806Z,3.17
2022-11-05T15:51:02.374Z,3.20
2022-11-05T15:54:24.292Z,2.62
2022-11-05T15:59:54.881Z,2.87
2022-11-05T16:08:53.397Z,2.77
2022-11-05T16:11:34.851Z,3.10
2022-11-05T16:17:53.680Z,3.10
2022-11-05T16:20:24.515Z,2.80
2022-11-05T16:26:04.479Z,2.70
2022-11-05T16:28:38.013Z,2.72
2022-11-05T16:31:23.663Z,2.85
2022-11-05T16:37:29.712Z,4.92
2022-11-05T16:40:12.382Z,3.85
2022-11-05T16:43:01.270Z,3.08
2022-11-05T16:45:27.504Z,4.00
2022-11-05T16:54:10.639Z,3.72
2022-11-05T16:57:24.933Z,3.90
2022-11-05T17:02:57.142Z,3.80
2022-11-05T17:08:38.245Z,3.42
2022-11-05T17:17:23.122Z,3.27
2022-11-05T17:22:50.711Z,2.65
2022-11-05T17:25:19.075Z,2.50
2022-11-05T17:27:47.300Z,2.83
2022-11-05T17:30:15.491Z,2.58
2022-11-05T17:32:43.777Z,2.85
2022-11-05T17:35:13.572Z,3.42
2022-11-05T17:37:41.963Z,3.05
2022-11-05T17:40:11.739Z,3.25
2022-11-05T17:42:39.951Z,3.22
2022-11-05T17:45:08.493Z,3.83
2022-11-05T17:47:36.630Z,2.72
2022-11-05T17:50:05.417Z,2.95
2022-11-05T17:52:33.673Z,2.75
2022-11-05T17:55:02.047Z,3.47
2022-11-05T17:57:30.269Z,4.83
2022-11-05T17:59:58.463Z,3.20
2022-11-05T18:02:28.385Z,3.83
2022-11-05T18:04:57.693Z,3.55
2022-11-05T18:07:28.479Z,3.90
2022-11-05T18:09:57.362Z,3.52
2022-11-05T18:12:26.421Z,4.25
2022-11-05T18:14:55.521Z,7.03
2022-11-05T18:17:23.704Z,4.83
2022-11-05T18:19:51.906Z,3.50
2022-11-05T18:22:20.046Z,6.03
2022-11-05T18:24:51.504Z,3.85
2022-11-05T18:28:12.975Z,4.97
2022-11-05T18:30:02.817Z,4.10
2022-11-05T18:35:36.770Z,4.08
2022-11-05T18:38:06.667Z,3.62
2022-11-05T18:40:38.180Z,4.25
2022-11-05T18:43:06.370Z,4.47
2022-11-05T18:45:34.832Z,4.50
2022-11-05T18:48:03.534Z,4.62
2022-11-05T18:53:27.499Z,5.60
2022-11-05T18:56:07.916Z,6.92
2022-11-05T18:58:42.289Z,4.87
2022-11-05T19:07:54.830Z,4.83
2022-11-05T19:16:16.146Z,5.65
2022-11-05T19:21:05.691Z,4.50
2022-11-05T19:21:20.404Z,4.45
2022-11-05T19:23:59.287Z,4.40
2022-11-05T19:26:35.669Z,4.40
2022-11-05T19:29:13.003Z,4.78
2022-11-05T19:31:50.148Z,4.47
2022-11-05T19:37:20.420Z,4.97
2022-11-05T19:39:55.912Z,4.87
2022-11-05T19:42:25.978Z,4.42
2022-11-05T19:44:54.378Z,4.97
2022-11-05T19:47:22.867Z,3.87
2022-11-05T19:53:09.521Z,6.65
2022-11-05T19:55:40.395Z,6.62
2022-11-05T19:58:19.958Z,5.37
2022-11-05T20:00:48.298Z,4.92
2022-11-05T20:03:18.074Z,5.28
2022-11-05T20:05:46.272Z,4.55
2022-11-05T20:08:14.803Z,4.00
2022-11-05T20:10:43.306Z,4.40
2022-11-05T20:13:17.023Z,4.58
2022-11-05T20:15:41.985Z,3.87
2022-11-05T20:18:25.312Z,4.62
2022-11-05T20:21:30.460Z,4.55
2022-11-05T20:24:07.524Z,4.42
2022-11-05T20:26:51.191Z,4.67
2022-11-05T20:35:14.115Z,4.47
2022-11-05T20:37:48.552Z,4.90
2022-11-05T20:40:24.358Z,4.50
2022-11-05T20:43:12.079Z,5.47
2022-11-05T20:48:33.518Z,6.80
2022-11-05T20:51:12.485Z,4.45
2022-11-05T20:53:46.999Z,4.70
2022-11-05T20:56:28.302Z,4.28
2022-11-05T20:58:58.561Z,6.00
2022-11-05T21:01:40.093Z,4.67
2022-11-05T21:04:11.221Z,4.10
2022-11-05T21:06:39.210Z,4.78
2022-11-05T21:09:13.384Z,5.55
2022-11-05T21:14:57.079Z,4.72
2022-11-05T21:17:25.319Z,4.78
2022-11-05T21:19:53.501Z,5.65
2022-11-05T21:22:21.725Z,6.05
2022-11-05T21:24:50.562Z,8.08
2022-11-05T21:27:18.806Z,8.30
2022-11-05T21:29:47.008Z,8.00
2022-11-05T21:32:15.124Z,5.30
2022-11-05T21:34:43.323Z,7.28
2022-11-05T21:37:11.471Z,6.70
2022-11-05T21:39:39.665Z,16.30
2022-11-05T21:42:07.810Z,10.53
2022-11-05T21:44:36.013Z,10.30
2022-11-05T21:47:04.608Z,20.32
2022-11-05T21:49:34.699Z,20.80
2022-11-05T21:52:20.917Z,14.78
2022-11-05T21:55:07.789Z,13.05
2022-11-05T21:57:54.239Z,5.95
2022-11-05T22:00:22.411Z,5.37
2022-11-05T22:02:50.721Z,5.45
2022-11-05T22:05:19.155Z,4.83
2022-11-05T22:07:47.474Z,5.83
2022-11-05T22:10:17.050Z,8.63
2022-11-05T22:12:45.926Z,4.70
2022-11-05T22:15:14.370Z,4.35
2022-11-05T22:17:46.518Z,4.80
2022-11-05T22:20:12.435Z,4.53
2022-11-05T22:22:40.647Z,4.65
2022-11-05T22:25:09.435Z,5.08
2022-11-05T22:27:37.686Z,5.28
2022-11-05T22:30:06.205Z,4.85
2022-11-05T22:32:34.348Z,6.08
2022-11-05T22:35:05.437Z,6.05
2022-11-05T22:37:34.242Z,4.67
2022-11-05T22:40:02.841Z,7.05
2022-11-05T22:42:31.389Z,12.20
2022-11-05T22:44:59.922Z,6.28
2022-11-05T22:47:28.167Z,10.93
2022-11-05T22:49:56.446Z,12.60
2022-11-05T22:52:24.838Z,9.33
2022-11-05T22:54:53.071Z,12.60
2022-11-05T22:57:21.563Z,8.85
2022-11-05T22:59:50.345Z,6.75
2022-11-05T23:02:19.144Z,8.80
2022-11-05T23:04:48.900Z,5.42
2022-11-05T23:07:37.950Z,8.28
2022-11-05T23:10:24.793Z,9.03
2022-11-05T23:12:55.404Z,8.80
2022-11-05T23:15:44.565Z,8.93
2022-11-05T23:18:30.878Z,5.55
2022-11-05T23:21:22.706Z,7.17
2022-11-05T23:24:06.108Z,6.12
2022-11-05T23:26:50.136Z,5.62
2022-11-05T23:29:19.532Z,6.60
2022-11-05T23:32:06.119Z,6.55
2022-11-05T23:34:34.343Z,5.35
2022-11-05T23:37:20.249Z,5.00
2022-11-05T23:39:48.512Z,5.28
2022-11-05T23:42:34.880Z,5.25
2022-11-05T23:45:22.047Z,5.90
2022-11-05T23:48:08.547Z,6.15
2022-11-05T23:50:39.773Z,5.37
2022-11-05T23:53:06.614Z,5.08
2022-11-05T23:55:34.879Z,4.85
2022-11-05T23:58:03.175Z,4.20
